Lower Augusta, Pennsylvania
Current Conditions -  °F | °C
As of 5:32 AM on Monday 26 Jan 2015 (Local Time) from KSEG Reporting Station
Light Snow Light Snow  
Wind Chill: 10°   Ceiling: 1500
Heat Index: 20°   Visibility: 1mi
Dew Point: 16°   Wind: 8mph
Humidity: 85%   Direction: 40°NE
Pressure: 29.91"   Gusts: NA
Location:  40.83°N, 76.761°W
Report Text: KSEG 261032Z AUTO 04007KT 1SM -SN BR VV015 M07/M09 A2991 RMK AO2 P0001 T10671089
Loading
Personal Weather Stations






























Interactive Weather Map New forecast layout! Learn more

10-Day Weather Forecast

Advertisements
Track Severe Weather on mobile